createdAt,value
2018-01-05T00:00:03.930Z,30.00
2018-01-05T00:02:33.062Z,24.20
2018-01-05T00:04:58.932Z,19.48
2018-01-05T00:07:28.334Z,17.20
2018-01-05T00:09:54.192Z,15.38
2018-01-05T00:12:21.751Z,13.37
2018-01-05T00:14:47.614Z,21.52
2018-01-05T00:17:17.201Z,13.83
2018-01-05T00:19:43.052Z,20.12
2018-01-05T00:22:10.817Z,18.17
2018-01-05T00:24:36.674Z,13.10
2018-01-05T00:27:05.298Z,28.70
2018-01-05T00:29:31.204Z,15.98
2018-01-05T00:34:27.990Z,24.17
2018-01-05T00:36:54.979Z,12.70
2018-01-05T00:39:20.829Z,20.48
2018-01-05T00:41:46.679Z,23.27
2018-01-05T00:44:12.551Z,20.90
2018-01-05T00:46:38.364Z,16.33
2018-01-05T00:49:08.131Z,13.77
2018-01-05T00:51:34.016Z,18.40
2018-01-05T00:54:03.102Z,22.03
2018-01-05T00:56:28.961Z,9.60
2018-01-05T00:58:57.970Z,24.90
2018-01-05T01:01:23.872Z,13.07
2018-01-05T01:03:51.639Z,25.67
2018-01-05T01:06:17.538Z,12.73
2018-01-05T01:08:46.940Z,18.83
2018-01-05T01:11:12.818Z,20.67
2018-01-05T01:13:58.620Z,24.63
2018-01-05T01:16:24.472Z,16.37
2018-01-05T01:18:50.304Z,16.13
2018-01-05T01:21:16.180Z,13.63
2018-01-05T01:23:42.029Z,18.27
2018-01-05T01:26:07.842Z,23.70
2018-01-05T01:28:33.675Z,26.57
2018-01-05T01:30:59.497Z,26.23
2018-01-05T01:33:25.344Z,21.50
2018-01-05T01:35:51.212Z,22.30
2018-01-05T01:38:17.101Z,22.47
2018-01-05T01:40:42.953Z,12.63
2018-01-05T01:43:08.842Z,17.93
2018-01-05T01:45:34.694Z,24.73
2018-01-05T01:48:00.548Z,21.87
2018-01-05T01:50:26.430Z,20.70
2018-01-05T01:52:52.237Z,25.20
2018-01-05T01:55:18.057Z,19.87
2018-01-05T01:57:43.926Z,18.97
2018-01-05T02:00:09.826Z,12.60
2018-01-05T02:02:37.407Z,11.90
2018-01-05T02:05:03.230Z,17.12
2018-01-05T02:07:31.827Z,18.97
2018-01-05T02:09:57.707Z,17.65
2018-01-05T02:15:05.234Z,12.50
2018-01-05T02:17:31.111Z,16.35
2018-01-05T02:19:56.954Z,22.40
2018-01-05T02:22:22.829Z,12.43
2018-01-05T02:24:48.646Z,24.77
2018-01-05T02:27:14.554Z,13.83
2018-01-05T02:29:40.436Z,15.03
2018-01-05T02:32:06.270Z,8.43
2018-01-05T02:34:32.126Z,23.33
2018-01-05T02:36:58.093Z,19.87
2018-01-05T02:39:23.974Z,17.20
2018-01-05T02:41:49.826Z,17.73
2018-01-05T02:44:18.688Z,12.37
2018-01-05T02:46:44.580Z,22.65
2018-01-05T02:49:12.416Z,13.67
2018-01-05T02:51:38.315Z,8.55
2018-01-05T02:54:07.725Z,14.50
2018-01-05T02:56:33.588Z,17.33
2018-01-05T02:59:01.479Z,18.00
2018-01-05T03:01:27.361Z,26.87
2018-01-05T03:03:56.993Z,17.93
2018-01-05T03:06:22.916Z,14.77
2018-01-05T03:08:48.739Z,8.50
2018-01-05T03:11:14.599Z,18.40
2018-01-05T03:13:40.458Z,16.20
2018-01-05T03:16:09.383Z,15.87
2018-01-05T03:18:35.226Z,14.23
2018-01-05T03:21:02.594Z,30.27
2018-01-05T03:23:28.457Z,18.20
2018-01-05T03:25:57.410Z,21.13
2018-01-05T03:28:23.228Z,11.75
2018-01-05T03:30:51.887Z,8.33
2018-01-05T03:33:17.759Z,12.02
2018-01-05T03:38:14.535Z,18.95
2018-01-05T03:40:44.021Z,10.10
2018-01-05T03:43:09.873Z,20.08
2018-01-05T03:45:35.736Z,16.63
2018-01-05T03:48:01.592Z,12.87
2018-01-05T03:50:27.507Z,6.40
2018-01-05T03:52:53.294Z,12.57
2018-01-05T03:55:19.148Z,9.40
2018-01-05T03:57:47.818Z,15.27
2018-01-05T04:00:13.647Z,10.15
2018-01-05T04:02:55.151Z,14.00
2018-01-05T04:05:20.981Z,7.30
2018-01-05T04:07:46.876Z,11.63
2018-01-05T04:10:12.700Z,14.10
2018-01-05T04:12:38.552Z,10.33
2018-01-05T04:15:04.380Z,14.60
2018-01-05T04:17:30.258Z,9.60
2018-01-05T04:19:56.070Z,16.73
2018-01-05T04:22:21.940Z,13.03
2018-01-05T04:24:58.134Z,12.60
2018-01-05T04:27:24.018Z,12.77
2018-01-05T04:29:49.869Z,10.17
2018-01-05T04:32:15.723Z,8.40
2018-01-05T04:34:41.568Z,13.97
2018-01-05T04:37:07.429Z,9.60
2018-01-05T04:39:33.314Z,15.70
2018-01-05T04:41:59.186Z,4.70
2018-01-05T04:44:25.030Z,16.07
2018-01-05T04:46:52.402Z,10.30
2018-01-05T04:49:18.275Z,16.70
2018-01-05T04:51:44.142Z,7.17
2018-01-05T04:54:13.825Z,9.70
2018-01-05T04:56:39.656Z,16.92
2018-01-05T04:59:05.544Z,13.07
2018-01-05T05:01:31.483Z,25.43
2018-01-05T05:03:57.363Z,12.43
2018-01-05T05:06:23.970Z,8.33
2018-01-05T05:08:58.039Z,18.73
2018-01-05T05:11:23.910Z,10.07
2018-01-05T05:13:49.753Z,8.53
2018-01-05T05:16:15.648Z,11.47
2018-01-05T05:18:41.529Z,12.70
2018-01-05T05:21:08.366Z,7.43
2018-01-05T05:23:34.232Z,8.68
2018-01-05T05:26:02.874Z,10.47
2018-01-05T05:28:28.716Z,16.60
2018-01-05T05:31:08.122Z,9.27
2018-01-05T05:33:33.974Z,13.77
2018-01-05T05:35:59.873Z,11.47
2018-01-05T05:38:25.733Z,7.13
2018-01-05T05:40:51.613Z,9.53
2018-01-05T05:43:17.429Z,4.87
2018-01-05T05:45:43.294Z,10.00
2018-01-05T05:48:09.158Z,10.17
2018-01-05T05:50:35.006Z,9.83
2018-01-05T05:53:16.444Z,6.77
2018-01-05T05:55:42.309Z,6.62
2018-01-05T05:58:08.180Z,7.37
2018-01-05T06:00:34.049Z,9.97
2018-01-05T06:02:59.877Z,13.00
2018-01-05T06:05:25.735Z,10.53
2018-01-05T06:07:51.561Z,13.70
2018-01-05T06:10:17.528Z,7.67
2018-01-05T06:12:43.421Z,6.00
2018-01-05T06:15:10.112Z,7.97
2018-01-05T06:17:35.970Z,2.80
2018-01-05T06:20:01.861Z,10.83
2018-01-05T06:22:27.758Z,6.60
2018-01-05T06:24:53.630Z,3.03
2018-01-05T06:27:19.478Z,3.50
2018-01-05T06:29:45.358Z,4.43
2018-01-05T06:32:11.198Z,13.13
2018-01-05T06:34:38.765Z,4.50
2018-01-05T06:37:04.710Z,4.97
2018-01-05T06:39:33.478Z,10.37
2018-01-05T06:41:59.336Z,10.82
2018-01-05T06:44:28.479Z,6.87
2018-01-05T06:46:54.385Z,7.37
2018-01-05T06:49:20.219Z,8.23
2018-01-05T06:51:46.076Z,7.07
2018-01-05T06:54:11.920Z,5.47
2018-01-05T06:56:41.616Z,3.67
2018-01-05T06:59:11.312Z,9.32
2018-01-05T07:01:37.150Z,4.82
2018-01-05T07:04:02.986Z,4.30
2018-01-05T07:06:29.850Z,7.87
2018-01-05T07:08:55.708Z,3.00
2018-01-05T07:11:24.897Z,5.90
2018-01-05T07:13:50.770Z,7.55
2018-01-05T07:16:20.457Z,4.77
2018-01-05T07:18:46.318Z,7.20
2018-01-05T07:21:13.808Z,13.33
2018-01-05T07:23:39.618Z,10.60
2018-01-05T07:26:05.483Z,8.77
2018-01-05T07:28:31.321Z,10.57
2018-01-05T07:30:57.179Z,4.43
2018-01-05T07:33:25.002Z,7.47
2018-01-05T07:35:50.817Z,8.43
2018-01-05T07:38:19.464Z,6.17
2018-01-05T07:40:45.279Z,13.30
2018-01-05T07:43:17.333Z,6.20
2018-01-05T07:45:43.269Z,4.40
2018-01-05T07:48:09.188Z,8.13
2018-01-05T07:50:35.054Z,6.33
2018-01-05T07:55:31.736Z,4.12
2018-01-05T07:57:58.646Z,3.13
2018-01-05T08:00:24.512Z,8.88
2018-01-05T08:02:50.367Z,4.43
2018-01-05T08:05:22.466Z,3.47
2018-01-05T08:07:48.371Z,6.82
2018-01-05T08:10:14.228Z,1.83
2018-01-05T08:12:40.074Z,7.80
2018-01-05T08:15:05.902Z,3.47
2018-01-05T08:17:31.791Z,4.87
2018-01-05T08:20:01.588Z,6.43
2018-01-05T08:22:27.428Z,5.40
2018-01-05T08:24:55.126Z,5.00
2018-01-05T08:27:23.012Z,5.78
2018-01-05T08:29:49.578Z,3.15
2018-01-05T08:32:15.437Z,2.25
2018-01-05T08:34:44.238Z,5.90
2018-01-05T08:37:10.088Z,1.80
2018-01-05T08:39:35.968Z,3.83
2018-01-05T08:42:01.830Z,8.70
2018-01-05T08:44:27.709Z,4.53
2018-01-05T08:46:57.616Z,4.33
2018-01-05T08:49:24.815Z,6.05
2018-01-05T08:51:50.676Z,4.85
2018-01-05T08:54:16.565Z,5.60
2018-01-05T08:56:45.443Z,3.17
2018-01-05T08:59:11.628Z,3.25
2018-01-05T09:01:41.138Z,2.78
2018-01-05T09:04:06.997Z,2.17
2018-01-05T09:06:35.694Z,3.23
2018-01-05T09:09:03.000Z,2.60
2018-01-05T09:11:30.103Z,4.43
2018-01-05T09:13:58.720Z,6.05
2018-01-05T09:16:24.619Z,2.50
2018-01-05T09:18:50.524Z,3.93
2018-01-05T09:21:16.353Z,2.03
2018-01-05T09:23:42.320Z,4.27
2018-01-05T09:26:08.146Z,2.33
2018-01-05T09:28:37.407Z,1.83
2018-01-05T09:31:03.339Z,3.55
2018-01-05T09:33:30.808Z,2.23
2018-01-05T09:35:56.674Z,2.55
2018-01-05T09:38:26.155Z,4.50
2018-01-05T09:40:52.012Z,0.90
2018-01-05T09:43:21.279Z,2.90
2018-01-05T09:45:47.208Z,4.62
2018-01-05T09:48:14.825Z,8.80
2018-01-05T09:50:51.510Z,1.70
2018-01-05T09:53:17.864Z,1.35
2018-01-05T09:55:43.754Z,4.43
2018-01-05T09:58:09.561Z,1.57
2018-01-05T10:00:35.453Z,1.73
2018-01-05T10:03:01.308Z,2.60
2018-01-05T10:05:27.139Z,2.23
2018-01-05T10:07:52.997Z,1.80
2018-01-05T10:10:18.822Z,1.77
2018-01-05T10:12:59.990Z,4.40
2018-01-05T10:15:25.885Z,1.75
2018-01-05T10:17:51.824Z,1.07
2018-01-05T10:20:17.851Z,2.33
2018-01-05T10:22:43.827Z,2.67
2018-01-05T10:25:09.873Z,2.40
2018-01-05T10:27:35.892Z,4.90
2018-01-05T10:30:01.750Z,3.37
2018-01-05T10:32:30.548Z,6.33
2018-01-05T10:34:56.523Z,2.20
2018-01-05T10:37:22.377Z,1.83
2018-01-05T10:39:48.190Z,4.37
2018-01-05T10:42:14.088Z,4.10
2018-01-05T10:44:39.994Z,5.60
2018-01-05T10:47:05.969Z,2.70
2018-01-05T10:49:31.839Z,1.63
2018-01-05T10:51:57.690Z,1.50
2018-01-05T10:54:23.516Z,2.80
2018-01-05T10:56:53.213Z,5.00
2018-01-05T10:59:19.056Z,3.72
2018-01-05T11:01:45.364Z,1.60
2018-01-05T11:04:11.244Z,2.65
2018-01-05T11:06:37.074Z,4.33
2018-01-05T11:09:02.946Z,2.33
2018-01-05T11:11:28.826Z,1.80
2018-01-05T11:13:58.179Z,1.47
2018-01-05T11:16:24.064Z,3.08
2018-01-05T11:18:51.768Z,4.47
2018-01-05T11:21:17.663Z,2.97
2018-01-05T11:23:47.097Z,2.73
2018-01-05T11:26:12.957Z,2.45
2018-01-05T11:28:42.164Z,1.77
2018-01-05T11:31:08.018Z,5.50
2018-01-05T11:33:37.111Z,1.33
2018-01-05T11:36:02.967Z,1.30
2018-01-05T11:38:32.125Z,1.20
2018-01-05T11:40:57.964Z,1.20
2018-01-05T11:43:23.800Z,1.43
2018-01-05T11:45:49.664Z,1.63
2018-01-05T11:48:15.569Z,1.23
2018-01-05T11:50:42.264Z,5.43
2018-01-05T11:53:08.136Z,1.58
2018-01-05T11:55:37.337Z,3.40
2018-01-05T11:58:03.223Z,3.03
2018-01-05T12:00:32.996Z,1.30
2018-01-05T12:02:58.837Z,7.37
2018-01-05T12:05:28.327Z,1.63
2018-01-05T12:07:54.184Z,2.83
2018-01-05T12:10:21.256Z,3.57
2018-01-05T12:12:47.164Z,3.15
2018-01-05T12:15:16.603Z,2.20
2018-01-05T12:17:42.492Z,3.85
2018-01-05T12:20:08.391Z,1.83
2018-01-05T12:22:34.267Z,2.43
2018-01-05T12:25:00.117Z,7.60
2018-01-05T12:27:29.060Z,3.63
2018-01-05T12:29:54.901Z,1.50
2018-01-05T12:32:22.603Z,2.03
2018-01-05T12:34:48.476Z,1.58
2018-01-05T12:37:18.241Z,1.00
2018-01-05T12:39:44.110Z,2.78
2018-01-05T12:42:11.644Z,2.70
2018-01-05T12:44:37.454Z,5.57
2018-01-05T12:49:34.257Z,2.08
2018-01-05T12:52:01.278Z,1.67
2018-01-05T12:54:27.135Z,2.83
2018-01-05T12:56:53.002Z,3.77
2018-01-05T12:59:18.871Z,3.00
2018-01-05T13:01:44.771Z,5.03
2018-01-05T13:04:14.310Z,3.90
2018-01-05T13:06:40.210Z,4.37
2018-01-05T13:09:07.729Z,1.83
2018-01-05T13:11:33.564Z,1.92
2018-01-05T13:14:03.024Z,1.87
2018-01-05T13:16:28.867Z,3.20
2018-01-05T13:18:57.958Z,1.93
2018-01-05T13:21:23.829Z,6.12
2018-01-05T13:23:51.677Z,5.13
2018-01-05T13:26:17.542Z,6.45
2018-01-05T13:31:14.345Z,61.40
2018-01-05T13:33:40.209Z,10.63
2018-01-05T13:36:06.074Z,7.50
2018-01-05T13:38:31.924Z,6.17
2018-01-05T13:40:58.867Z,4.27
2018-01-05T13:43:26.771Z,10.82
2018-01-05T13:45:53.318Z,5.90
2018-01-05T13:48:19.207Z,15.38
2018-01-05T13:50:48.528Z,4.63
2018-01-05T13:53:14.393Z,7.70
2018-01-05T13:55:44.338Z,6.53
2018-01-05T13:58:10.242Z,15.90
2018-01-05T14:00:37.606Z,39.10
2018-01-05T14:03:03.458Z,26.48
2018-01-05T14:05:35.952Z,21.87
2018-01-05T14:08:01.797Z,8.65
2018-01-05T14:10:27.624Z,9.10
2018-01-05T14:12:53.500Z,12.80
2018-01-05T14:15:19.353Z,17.20
2018-01-05T14:17:45.244Z,11.23
2018-01-05T14:20:11.102Z,13.93
2018-01-05T14:22:38.399Z,11.13
2018-01-05T14:25:04.262Z,6.40
2018-01-05T14:27:32.934Z,5.83
2018-01-05T14:29:58.820Z,2.90
2018-01-05T14:32:28.302Z,1.70
2018-01-05T14:34:54.312Z,4.15
2018-01-05T14:37:23.481Z,5.65
2018-01-05T14:39:49.362Z,8.00
2018-01-05T14:42:18.491Z,5.17
2018-01-05T14:44:44.308Z,2.85
2018-01-05T14:47:10.142Z,5.70
2018-01-05T14:49:36.036Z,5.00
2018-01-05T14:52:02.006Z,2.37
2018-01-05T14:54:29.675Z,2.97
2018-01-05T14:56:55.556Z,1.27
2018-01-05T14:59:24.564Z,1.63
2018-01-05T15:01:50.426Z,2.87
2018-01-05T15:04:19.906Z,2.20
2018-01-05T15:06:45.738Z,1.33
2018-01-05T15:09:13.116Z,1.37
2018-01-05T15:11:45.034Z,1.30
2018-01-05T15:14:10.904Z,1.00
2018-01-05T15:16:36.776Z,1.40
2018-01-05T15:19:02.637Z,1.13
2018-01-05T15:21:28.586Z,1.30
2018-01-05T15:23:54.564Z,0.87
2018-01-05T15:26:20.399Z,1.37
2018-01-05T15:28:46.272Z,1.00
2018-01-05T15:31:15.605Z,1.10
2018-01-05T15:33:41.474Z,3.45
2018-01-05T15:36:08.811Z,1.47
2018-01-05T15:38:34.706Z,1.42
2018-01-05T15:41:03.509Z,1.27
2018-01-05T15:43:29.374Z,1.80
2018-01-05T15:45:58.808Z,2.90
2018-01-05T15:48:24.606Z,1.30
2018-01-05T15:50:53.483Z,1.87
2018-01-05T15:53:20.404Z,1.05
2018-01-05T15:55:49.402Z,3.20
2018-01-05T15:58:15.315Z,2.22
2018-01-05T16:00:41.206Z,6.17
2018-01-05T16:03:07.097Z,1.57
2018-01-05T16:05:32.935Z,1.17
2018-01-05T16:07:59.478Z,2.20
2018-01-05T16:10:25.342Z,2.33
2018-01-05T16:12:53.987Z,2.43
2018-01-05T16:15:19.853Z,2.37
2018-01-05T16:20:16.509Z,1.00
2018-01-05T16:22:44.291Z,2.07
2018-01-05T16:25:10.147Z,2.05
2018-01-05T16:27:39.180Z,3.90
2018-01-05T16:30:05.036Z,4.07
2018-01-05T16:32:34.400Z,5.97
2018-01-05T16:35:24.841Z,40.03
2018-01-05T16:37:50.740Z,9.55
2018-01-05T16:40:16.691Z,5.33
2018-01-05T16:42:42.527Z,4.50
2018-01-05T16:45:08.403Z,2.87
2018-01-05T16:47:34.226Z,11.20
2018-01-05T16:50:00.126Z,13.50
2018-01-05T16:52:25.982Z,4.27
2018-01-05T16:54:51.872Z,4.30
2018-01-05T16:57:17.814Z,2.93
2018-01-05T16:59:43.622Z,5.20
2018-01-05T17:02:09.499Z,4.27
2018-01-05T17:04:35.382Z,15.37
2018-01-05T17:07:01.214Z,11.80
2018-01-05T17:09:27.082Z,1.70
2018-01-05T17:11:52.918Z,3.33
2018-01-05T17:14:18.740Z,2.80
2018-01-05T17:16:44.581Z,5.37
2018-01-05T17:19:10.421Z,6.07
2018-01-05T17:21:36.269Z,4.70
2018-01-05T17:24:02.099Z,3.20
2018-01-05T17:26:27.966Z,2.80
2018-01-05T17:28:53.872Z,4.90
2018-01-05T17:31:19.709Z,6.00
2018-01-05T17:33:45.552Z,8.80
2018-01-05T17:36:14.164Z,10.53
2018-01-05T17:38:40.048Z,5.93
2018-01-05T17:43:36.636Z,3.45
2018-01-05T17:46:04.465Z,4.33
2018-01-05T17:48:30.334Z,3.22
2018-01-05T17:50:56.146Z,3.20
2018-01-05T17:53:23.067Z,4.10
2018-01-05T17:55:49.009Z,4.57
2018-01-05T17:58:16.073Z,5.70
2018-01-05T18:00:52.969Z,4.20
2018-01-05T18:03:18.823Z,7.80
2018-01-05T18:05:44.656Z,7.60
2018-01-05T18:08:10.551Z,5.00
2018-01-05T18:10:36.399Z,2.37
2018-01-05T18:13:02.275Z,5.43
2018-01-05T18:15:28.127Z,3.93
2018-01-05T18:17:54.691Z,3.10
2018-01-05T18:20:20.577Z,2.58
2018-01-05T18:23:00.732Z,2.87
2018-01-05T18:25:26.575Z,6.50
2018-01-05T18:27:52.416Z,4.00
2018-01-05T18:30:18.253Z,3.47
2018-01-05T18:32:44.106Z,4.17
2018-01-05T18:35:09.950Z,3.43
2018-01-05T18:37:35.776Z,3.73
2018-01-05T18:40:01.634Z,9.00
2018-01-05T18:42:27.487Z,8.20
2018-01-05T18:44:53.463Z,5.13
2018-01-05T18:47:19.346Z,4.50
2018-01-05T18:49:45.221Z,1.67
2018-01-05T18:52:11.104Z,13.13
2018-01-05T18:54:40.447Z,4.70
2018-01-05T18:57:06.244Z,22.25
2018-01-05T18:59:35.428Z,9.93
2018-01-05T19:02:01.298Z,14.90
2018-01-05T19:04:27.175Z,7.40
2018-01-05T19:06:53.161Z,5.53
2018-01-05T19:09:19.052Z,2.75
2018-01-05T19:11:46.153Z,3.77
2018-01-05T19:14:11.999Z,4.43
2018-01-05T19:16:40.919Z,7.17
2018-01-05T19:19:07.054Z,6.95
2018-01-05T19:21:36.896Z,9.10
2018-01-05T19:24:02.786Z,12.75
2018-01-05T19:26:30.384Z,7.40
2018-01-05T19:28:57.101Z,7.65
2018-01-05T19:31:26.752Z,2.00
2018-01-05T19:33:52.593Z,5.00
2018-01-05T19:36:20.475Z,6.23
2018-01-05T19:38:46.402Z,5.78
2018-01-05T19:41:12.307Z,4.00
2018-01-05T19:43:38.223Z,12.33
2018-01-05T19:46:04.099Z,4.03
2018-01-05T19:48:31.542Z,5.13
2018-01-05T19:50:57.451Z,3.55
2018-01-05T19:53:27.441Z,7.03
2018-01-05T19:55:53.374Z,6.40
2018-01-05T19:58:20.609Z,6.50
2018-01-05T20:00:46.525Z,3.80
2018-01-05T20:03:15.513Z,2.60
2018-01-05T20:05:41.377Z,6.80
2018-01-05T20:08:10.740Z,6.47
2018-01-05T20:10:36.718Z,4.22
2018-01-05T20:13:06.592Z,5.20
2018-01-05T20:15:32.482Z,4.40
2018-01-05T20:17:58.395Z,4.03
2018-01-05T20:20:24.261Z,4.00
2018-01-05T20:22:50.190Z,3.63
2018-01-05T20:25:16.853Z,5.82
2018-01-05T20:27:42.681Z,3.00
2018-01-05T20:30:24.360Z,4.73
2018-01-05T20:32:50.232Z,2.95
2018-01-05T20:35:16.147Z,3.33
2018-01-05T20:37:41.996Z,2.73
2018-01-05T20:40:07.902Z,4.20
2018-01-05T20:42:33.770Z,4.30
2018-01-05T20:44:59.644Z,3.53
2018-01-05T20:47:25.510Z,2.87
2018-01-05T20:49:51.377Z,3.73
2018-01-05T20:52:17.987Z,5.17
2018-01-05T20:54:43.859Z,5.55
2018-01-05T20:57:09.708Z,4.53
2018-01-05T20:59:35.571Z,8.00
2018-01-05T21:02:02.735Z,9.20
2018-01-05T21:04:28.602Z,6.93
2018-01-05T21:06:58.040Z,8.13
2018-01-05T21:09:23.906Z,18.95
2018-01-05T21:11:52.914Z,21.80
2018-01-05T21:14:18.839Z,5.90
2018-01-05T21:16:45.991Z,6.03
2018-01-05T21:19:11.851Z,7.20
2018-01-05T21:24:08.698Z,4.78
2018-01-05T21:26:35.840Z,6.30
2018-01-05T21:29:01.712Z,3.53
2018-01-05T21:31:27.572Z,3.93
2018-01-05T21:33:53.424Z,5.70
2018-01-05T21:36:32.638Z,5.37
2018-01-05T21:38:58.520Z,7.47
2018-01-05T21:41:24.467Z,4.70
2018-01-05T21:43:50.386Z,3.20
2018-01-05T21:46:16.263Z,7.00
2018-01-05T21:48:42.177Z,4.20
2018-01-05T21:53:48.923Z,3.60
2018-01-05T21:56:14.774Z,9.53
2018-01-05T21:58:40.601Z,3.50
2018-01-05T22:01:06.428Z,4.03
2018-01-05T22:03:32.290Z,4.50
2018-01-05T22:05:58.154Z,3.30
2018-01-05T22:08:23.985Z,4.53
2018-01-05T22:10:49.824Z,9.00
2018-01-05T22:13:15.677Z,4.47
2018-01-05T22:15:42.813Z,5.63
2018-01-05T22:18:08.640Z,5.18
2018-01-05T22:20:38.020Z,6.50
2018-01-05T22:23:03.838Z,8.95
2018-01-05T22:25:33.387Z,6.97
2018-01-05T22:27:59.213Z,6.45
2018-01-05T22:30:28.478Z,7.50
2018-01-05T22:32:54.364Z,8.07
2018-01-05T22:35:21.730Z,6.27
2018-01-05T22:37:47.700Z,8.43
2018-01-05T22:40:16.700Z,6.20
2018-01-05T22:42:42.843Z,5.85
2018-01-05T22:45:08.948Z,3.58
2018-01-05T22:47:34.786Z,5.47
2018-01-05T22:50:00.653Z,4.13
2018-01-05T22:52:28.329Z,6.77
2018-01-05T22:54:54.149Z,7.35
2018-01-05T22:57:23.488Z,2.90
2018-01-05T22:59:49.279Z,5.85
2018-01-05T23:02:18.772Z,4.03
2018-01-05T23:04:44.613Z,5.10
2018-01-05T23:07:12.090Z,6.83
2018-01-05T23:09:37.970Z,1.87
2018-01-05T23:12:06.928Z,3.10
2018-01-05T23:14:32.752Z,6.37
2018-01-05T23:17:01.404Z,4.27
2018-01-05T23:19:27.260Z,2.47
2018-01-05T23:21:53.144Z,3.10
2018-01-05T23:24:19.012Z,1.90
2018-01-05T23:26:44.856Z,3.60
2018-01-05T23:29:14.028Z,1.80
2018-01-05T23:31:39.835Z,3.65
2018-01-05T23:34:09.492Z,2.40
2018-01-05T23:36:35.342Z,2.00
2018-01-05T23:39:04.523Z,5.50
2018-01-05T23:41:30.558Z,6.18
2018-01-05T23:43:58.357Z,3.50
2018-01-05T23:46:24.186Z,2.97
2018-01-05T23:48:53.977Z,2.63
2018-01-05T23:51:19.816Z,7.68
2018-01-05T23:53:47.014Z,3.03
2018-01-05T23:56:12.852Z,2.15
2018-01-05T23:58:38.710Z,1.83
